createdAt,value
2023-04-14T00:02:15.070Z,0.50
2023-04-14T00:04:42.365Z,0.82
2023-04-14T00:07:12.279Z,0.70
2023-04-14T00:09:39.233Z,0.60
2023-04-14T00:12:07.202Z,0.60
2023-04-14T00:14:34.150Z,0.68
2023-04-14T00:17:01.155Z,0.70
2023-04-14T00:19:28.174Z,0.50
2023-04-14T00:21:55.008Z,0.65
2023-04-14T00:24:21.701Z,0.60
2023-04-14T00:26:48.602Z,0.60
2023-04-14T00:29:15.665Z,0.50
2023-04-14T00:31:42.748Z,0.52
2023-04-14T00:34:09.767Z,0.50
2023-04-14T00:36:39.177Z,0.45
2023-04-14T00:39:06.341Z,0.70
2023-04-14T00:41:34.268Z,0.50
2023-04-14T00:44:05.614Z,0.52
2023-04-14T00:46:33.038Z,0.60
2023-04-14T00:49:00.107Z,0.50
2023-04-14T00:51:27.543Z,0.50
2023-04-14T00:53:56.227Z,0.40
2023-04-14T00:56:25.072Z,0.43
2023-04-14T00:58:52.200Z,0.38
2023-04-14T01:01:19.166Z,0.60
2023-04-14T01:03:46.400Z,0.50
2023-04-14T01:06:16.263Z,0.43
2023-04-14T01:08:43.168Z,0.52
2023-04-14T01:11:17.295Z,0.50
2023-04-14T01:13:47.053Z,0.50
2023-04-14T01:16:25.139Z,0.52
2023-04-14T01:19:04.887Z,0.50
2023-04-14T01:21:35.580Z,0.70
2023-04-14T01:24:14.914Z,0.40
2023-04-14T01:26:42.384Z,0.32
2023-04-14T01:29:17.776Z,0.40
2023-04-14T01:31:48.501Z,0.30
2023-04-14T01:34:34.053Z,0.45
2023-04-14T01:37:09.198Z,0.38
2023-04-14T01:39:38.161Z,0.52
2023-04-14T01:42:06.813Z,0.40
2023-04-14T01:44:33.874Z,0.50
2023-04-14T01:47:02.660Z,0.30
2023-04-14T01:49:30.234Z,0.40
2023-04-14T01:51:57.113Z,0.43
2023-04-14T01:54:24.737Z,0.40
2023-04-14T01:56:52.705Z,0.50
2023-04-14T01:59:21.156Z,0.38
2023-04-14T02:01:49.170Z,0.40
2023-04-14T02:04:17.391Z,0.52
2023-04-14T02:06:44.365Z,0.50
2023-04-14T02:09:13.975Z,0.50
2023-04-14T02:11:40.871Z,0.50
2023-04-14T02:14:08.236Z,0.40
2023-04-14T02:16:36.210Z,0.43
2023-04-14T02:19:04.189Z,0.32
2023-04-14T02:21:31.579Z,0.30
2023-04-14T02:23:58.394Z,0.60
2023-04-14T02:26:27.491Z,0.40
2023-04-14T02:29:02.165Z,0.40
2023-04-14T02:31:30.701Z,0.40
2023-04-14T02:33:58.324Z,0.45
2023-04-14T02:36:29.960Z,0.50
2023-04-14T02:38:59.774Z,0.40
2023-04-14T02:41:28.437Z,0.40
2023-04-14T02:44:11.000Z,0.40
2023-04-14T02:46:41.341Z,0.40
2023-04-14T02:49:12.748Z,0.40
2023-04-14T02:51:41.994Z,0.50
2023-04-14T02:54:09.495Z,0.50
2023-04-14T02:56:36.968Z,0.40
2023-04-14T02:59:04.533Z,0.50
2023-04-14T03:01:33.353Z,0.50
2023-04-14T03:04:00.363Z,0.40
2023-04-14T03:06:27.842Z,0.55
2023-04-14T03:08:55.156Z,0.40
2023-04-14T03:11:22.358Z,0.47
2023-04-14T03:13:53.311Z,0.50
2023-04-14T03:16:24.209Z,0.40
2023-04-14T03:18:51.915Z,0.43
2023-04-14T03:21:19.482Z,0.60
2023-04-14T03:23:46.792Z,0.40
2023-04-14T03:26:15.590Z,0.40
2023-04-14T03:28:43.094Z,0.50
2023-04-14T03:31:11.183Z,0.65
2023-04-14T03:33:39.210Z,0.80
2023-04-14T03:36:07.025Z,0.50
2023-04-14T03:38:34.785Z,0.68
2023-04-14T03:41:05.691Z,0.75
2023-04-14T03:43:33.720Z,0.68
2023-04-14T03:46:03.325Z,0.73
2023-04-14T03:48:31.903Z,0.63
2023-04-14T03:51:00.370Z,0.65
2023-04-14T03:53:29.088Z,0.73
2023-04-14T03:55:57.011Z,1.00
2023-04-14T03:58:25.376Z,0.80
2023-04-14T04:00:52.364Z,0.88
2023-04-14T04:03:19.309Z,1.05
2023-04-14T04:05:46.610Z,0.90
2023-04-14T04:08:13.249Z,1.10
2023-04-14T04:10:40.835Z,1.20
2023-04-14T04:13:09.618Z,0.90
2023-04-14T04:15:36.970Z,0.90
2023-04-14T04:18:06.594Z,0.90
2023-04-14T04:20:38.005Z,1.27
2023-04-14T04:23:08.676Z,1.20
2023-04-14T04:25:39.412Z,1.10
2023-04-14T04:28:07.050Z,1.17
2023-04-14T04:30:34.028Z,1.00
2023-04-14T04:33:04.191Z,0.98
2023-04-14T04:35:35.101Z,1.10
2023-04-14T04:38:02.351Z,1.20
2023-04-14T04:40:30.799Z,1.30
2023-04-14T04:42:57.942Z,1.40
2023-04-14T04:45:53.849Z,1.30
2023-04-14T04:48:20.685Z,1.33
2023-04-14T04:50:47.933Z,1.10
2023-04-14T04:53:14.777Z,1.25
2023-04-14T04:55:42.239Z,1.17
2023-04-14T04:58:09.304Z,1.30
2023-04-14T05:00:36.490Z,1.65
2023-04-14T05:03:03.408Z,1.15
2023-04-14T05:05:30.411Z,1.60
2023-04-14T05:07:57.298Z,1.60
2023-04-14T05:10:24.055Z,1.23
2023-04-14T05:12:51.114Z,1.50
2023-04-14T05:15:18.208Z,1.30
2023-04-14T05:17:47.917Z,1.73
2023-04-14T05:20:14.927Z,1.58
2023-04-14T05:22:41.787Z,1.40
2023-04-14T05:25:08.567Z,1.60
2023-04-14T05:27:35.181Z,1.50
2023-04-14T05:30:03.230Z,1.40
2023-04-14T05:32:30.012Z,1.40
2023-04-14T05:34:58.067Z,1.75
2023-04-14T05:37:24.879Z,1.33
2023-04-14T05:39:51.589Z,1.38
2023-04-14T05:42:18.327Z,1.50
2023-04-14T05:44:45.118Z,1.20
2023-04-14T05:47:11.961Z,1.23
2023-04-14T05:49:40.852Z,1.60
2023-04-14T05:52:07.438Z,1.60
2023-04-14T05:54:34.148Z,1.65
2023-04-14T05:57:01.105Z,1.50
2023-04-14T05:59:28.140Z,1.73
2023-04-14T06:01:55.267Z,1.67
2023-04-14T06:04:22.291Z,1.70
2023-04-14T06:06:49.197Z,1.50
2023-04-14T06:09:15.969Z,1.70
2023-04-14T06:11:42.800Z,1.83
2023-04-14T06:14:09.868Z,1.58
2023-04-14T06:16:36.790Z,1.55
2023-04-14T06:19:04.068Z,1.50
2023-04-14T06:21:34.077Z,1.60
2023-04-14T06:24:01.245Z,1.73
2023-04-14T06:26:28.413Z,1.70
2023-04-14T06:28:55.765Z,1.75
2023-04-14T06:31:22.692Z,1.80
2023-04-14T06:33:50.287Z,1.70
2023-04-14T06:36:18.668Z,2.20
2023-04-14T06:38:45.821Z,1.90
2023-04-14T06:41:15.736Z,1.52
2023-04-14T06:43:43.209Z,1.85
2023-04-14T06:46:10.511Z,2.15
2023-04-14T06:48:37.651Z,2.28
2023-04-14T06:51:04.877Z,1.95
2023-04-14T06:53:31.835Z,2.30
2023-04-14T06:56:01.743Z,2.92
2023-04-14T06:58:29.295Z,2.20
2023-04-14T07:01:00.143Z,2.60
2023-04-14T07:03:27.567Z,2.10
2023-04-14T07:05:54.875Z,2.63
2023-04-14T07:08:21.928Z,2.70
2023-04-14T07:10:48.977Z,2.42
2023-04-14T07:13:16.141Z,2.20
2023-04-14T07:15:47.771Z,2.63
2023-04-14T07:18:14.952Z,2.20
2023-04-14T07:20:42.241Z,2.53
2023-04-14T07:23:09.156Z,2.38
2023-04-14T07:25:39.383Z,2.47
2023-04-14T07:28:06.738Z,2.25
2023-04-14T07:30:34.108Z,2.40
2023-04-14T07:33:02.384Z,2.10
2023-04-14T07:35:29.629Z,2.22
2023-04-14T07:37:56.596Z,2.20
2023-04-14T07:40:23.651Z,2.22
2023-04-14T07:42:53.269Z,2.50
2023-04-14T07:45:20.227Z,2.33
2023-04-14T07:47:47.269Z,2.40
2023-04-14T07:50:14.351Z,2.40
2023-04-14T07:52:41.586Z,2.30
2023-04-14T07:55:08.335Z,2.45
2023-04-14T07:57:35.785Z,2.10
2023-04-14T08:00:02.952Z,2.10
2023-04-14T08:02:33.305Z,2.25
2023-04-14T08:05:01.003Z,2.15
2023-04-14T08:07:28.889Z,2.30
2023-04-14T08:09:56.587Z,2.33
2023-04-14T08:12:24.558Z,2.40
2023-04-14T08:14:54.816Z,2.20
2023-04-14T08:17:21.865Z,2.28
2023-04-14T08:19:49.136Z,2.75
2023-04-14T08:22:16.054Z,2.30
2023-04-14T08:24:43.015Z,2.20
2023-04-14T08:27:09.954Z,2.60
2023-04-14T08:29:37.108Z,2.03
2023-04-14T08:32:05.294Z,2.40
2023-04-14T08:34:32.244Z,2.65
2023-04-14T08:37:00.605Z,2.80
2023-04-14T08:39:28.090Z,2.47
2023-04-14T08:41:55.983Z,2.80
2023-04-14T08:44:23.603Z,2.60
2023-04-14T08:46:56.136Z,2.72
2023-04-14T08:51:51.774Z,2.63
2023-04-14T08:54:19.943Z,3.25
2023-04-14T08:56:47.815Z,2.97
2023-04-14T08:59:14.831Z,2.75
2023-04-14T09:01:42.188Z,3.00
2023-04-14T09:04:10.560Z,2.70
2023-04-14T09:06:37.877Z,2.80
2023-04-14T09:09:08.942Z,3.35
2023-04-14T09:11:36.077Z,3.10
2023-04-14T09:14:03.555Z,3.25
2023-04-14T09:16:32.192Z,3.40
2023-04-14T09:19:06.459Z,3.42
2023-04-14T09:21:51.630Z,3.83
2023-04-14T09:24:23.887Z,3.08
2023-04-14T09:26:51.062Z,3.72
2023-04-14T09:29:17.686Z,3.50
2023-04-14T09:31:47.709Z,3.50
2023-04-14T09:34:18.535Z,3.35
2023-04-14T09:37:05.564Z,3.67
2023-04-14T09:39:32.944Z,3.40
2023-04-14T09:42:00.178Z,4.07
2023-04-14T09:44:26.922Z,3.70
2023-04-14T09:47:00.841Z,3.33
2023-04-14T09:49:28.494Z,4.05
2023-04-14T09:51:55.550Z,4.10
2023-04-14T09:54:28.402Z,4.13
2023-04-14T09:56:56.008Z,3.75
2023-04-14T09:59:37.248Z,4.45
2023-04-14T10:02:20.024Z,4.20
2023-04-14T10:04:47.356Z,4.22
2023-04-14T10:07:19.045Z,4.45
2023-04-14T10:09:48.316Z,4.43
2023-04-14T10:12:15.864Z,4.55
2023-04-14T10:14:43.107Z,4.50
2023-04-14T10:17:10.271Z,4.50
2023-04-14T10:19:38.289Z,4.70
2023-04-14T10:22:08.113Z,5.00
2023-04-14T10:24:35.053Z,5.25
2023-04-14T10:27:03.486Z,4.93
2023-04-14T10:29:31.113Z,4.93
2023-04-14T10:32:06.349Z,5.13
2023-04-14T10:34:33.765Z,5.00
2023-04-14T10:37:13.914Z,5.47
2023-04-14T10:39:41.178Z,5.32
2023-04-14T10:42:08.250Z,5.38
2023-04-14T10:44:36.191Z,5.10
2023-04-14T10:47:05.191Z,5.57
2023-04-14T10:49:33.787Z,5.85
2023-04-14T10:52:04.975Z,5.60
2023-04-14T10:54:53.664Z,5.70
2023-04-14T10:57:24.107Z,5.78
2023-04-14T10:59:54.340Z,5.55
2023-04-14T11:02:31.446Z,5.40
2023-04-14T11:04:58.634Z,5.70
2023-04-14T11:07:25.341Z,5.68
2023-04-14T11:09:52.402Z,5.75
2023-04-14T11:12:22.260Z,6.00
2023-04-14T11:14:49.062Z,5.57
2023-04-14T11:17:25.019Z,6.18
2023-04-14T11:19:58.209Z,5.78
2023-04-14T11:22:54.631Z,5.80
2023-04-14T11:25:25.081Z,5.63
2023-04-14T11:27:52.652Z,5.90
2023-04-14T11:30:20.990Z,5.50
2023-04-14T11:32:52.385Z,6.25
2023-04-14T11:35:19.925Z,6.45
2023-04-14T11:37:47.395Z,5.72
2023-04-14T11:40:15.092Z,6.00
2023-04-14T11:42:51.578Z,6.47
2023-04-14T11:45:18.674Z,6.43
2023-04-14T11:48:01.785Z,6.43
2023-04-14T11:50:31.558Z,6.22
2023-04-14T11:52:59.865Z,6.43
2023-04-14T11:55:27.362Z,6.78
2023-04-14T11:57:54.824Z,6.70
2023-04-14T12:00:21.888Z,6.57
2023-04-14T12:02:49.277Z,6.90
2023-04-14T12:05:25.888Z,7.65
2023-04-14T12:07:58.745Z,7.03
2023-04-14T12:10:28.212Z,6.80
2023-04-14T12:13:01.955Z,7.38
2023-04-14T12:15:29.940Z,7.15
2023-04-14T12:17:58.122Z,7.40
2023-04-14T12:20:25.487Z,7.90
2023-04-14T12:25:26.649Z,7.15
2023-04-14T12:27:56.517Z,7.78
2023-04-14T12:30:26.800Z,7.88
2023-04-14T12:32:53.688Z,7.63
2023-04-14T12:35:24.395Z,8.00
2023-04-14T12:37:54.662Z,8.32
2023-04-14T12:40:37.950Z,7.88
2023-04-14T12:43:05.398Z,7.95
2023-04-14T12:45:45.680Z,7.70
2023-04-14T12:48:12.970Z,8.25
2023-04-14T12:50:40.176Z,8.27
2023-04-14T12:53:26.293Z,7.90
2023-04-14T12:56:08.358Z,7.25
2023-04-14T12:58:38.799Z,8.50
2023-04-14T13:01:08.701Z,7.55
2023-04-14T13:04:02.195Z,8.02
2023-04-14T13:06:29.101Z,8.18
2023-04-14T13:08:58.948Z,7.50
2023-04-14T13:11:25.874Z,7.82
2023-04-14T13:13:54.085Z,7.70
2023-04-14T13:16:21.471Z,8.23
2023-04-14T13:18:49.008Z,7.47
2023-04-14T13:21:16.124Z,7.85
2023-04-14T13:23:43.217Z,8.20
2023-04-14T13:26:10.916Z,7.43
2023-04-14T13:28:38.042Z,7.80
2023-04-14T13:31:05.135Z,7.75
2023-04-14T13:33:32.096Z,7.78
2023-04-14T13:35:58.733Z,8.20
2023-04-14T13:38:25.605Z,8.43
2023-04-14T13:40:52.252Z,8.10
2023-04-14T13:43:19.229Z,7.88
2023-04-14T13:45:47.113Z,8.10
2023-04-14T13:48:14.035Z,8.65
2023-04-14T13:50:40.852Z,8.38
2023-04-14T13:53:07.515Z,7.97
2023-04-14T13:55:34.968Z,8.25
2023-04-14T13:58:01.637Z,7.97
2023-04-14T14:00:28.291Z,8.40
2023-04-14T14:02:54.971Z,8.07
2023-04-14T14:05:21.685Z,8.02
2023-04-14T14:07:48.349Z,7.88
2023-04-14T14:10:14.975Z,8.38
2023-04-14T14:12:41.820Z,8.50
2023-04-14T14:15:08.760Z,8.07
2023-04-14T14:17:38.464Z,8.30
2023-04-14T14:20:05.526Z,8.32
2023-04-14T14:22:32.320Z,8.38
2023-04-14T14:25:15.211Z,7.88
2023-04-14T14:27:49.180Z,7.88
2023-04-14T14:30:16.291Z,7.10
2023-04-14T14:32:44.242Z,8.18
2023-04-14T14:35:13.026Z,8.32
2023-04-14T14:37:41.311Z,8.18
2023-04-14T14:40:08.664Z,8.02
2023-04-14T14:42:37.072Z,7.95
2023-04-14T14:45:04.181Z,8.55
2023-04-14T14:47:31.095Z,7.90
2023-04-14T14:50:02.933Z,7.63
2023-04-14T14:52:31.907Z,7.25
2023-04-14T14:54:59.450Z,7.43
2023-04-14T14:57:26.614Z,7.38
2023-04-14T14:59:53.984Z,7.57
2023-04-14T15:02:21.264Z,7.65
2023-04-14T15:04:49.050Z,7.57
2023-04-14T15:07:16.045Z,7.22
2023-04-14T15:09:43.676Z,7.57
2023-04-14T15:12:10.695Z,7.35
2023-04-14T15:14:37.846Z,6.93
2023-04-14T15:17:04.737Z,7.55
2023-04-14T15:19:31.786Z,7.38
2023-04-14T15:21:59.101Z,7.07
2023-04-14T15:24:26.396Z,7.07
2023-04-14T15:26:56.538Z,7.32
2023-04-14T15:29:26.973Z,7.65
2023-04-14T15:31:54.213Z,7.25
2023-04-14T15:34:21.677Z,7.40
2023-04-14T15:36:48.584Z,7.47
2023-04-14T15:39:15.571Z,7.05
2023-04-14T15:41:42.372Z,7.00
2023-04-14T15:44:08.996Z,7.35
2023-04-14T15:46:35.738Z,6.80
2023-04-14T15:49:02.590Z,6.97
2023-04-14T15:51:29.540Z,7.15
2023-04-14T15:53:56.582Z,6.45
2023-04-14T15:56:23.785Z,7.10
2023-04-14T15:58:50.821Z,6.55
2023-04-14T16:01:17.793Z,6.90
2023-04-14T16:03:45.040Z,6.78
2023-04-14T16:06:12.333Z,6.20
2023-04-14T16:08:39.227Z,6.47
2023-04-14T16:11:05.965Z,6.50
2023-04-14T16:13:32.909Z,5.95
2023-04-14T16:16:00.338Z,6.20
2023-04-14T16:18:27.240Z,6.13
2023-04-14T16:20:54.190Z,6.20
2023-04-14T16:23:20.942Z,6.18
2023-04-14T16:25:48.366Z,6.10
2023-04-14T16:28:17.291Z,5.75
2023-04-14T16:30:44.143Z,6.15
2023-04-14T16:33:11.255Z,6.15
2023-04-14T16:35:38.212Z,6.05
2023-04-14T16:38:10.834Z,6.03
2023-04-14T16:40:38.306Z,6.22
2023-04-14T16:43:05.251Z,6.03
2023-04-14T16:45:32.423Z,6.32
2023-04-14T16:47:59.640Z,7.07
2023-04-14T16:50:26.860Z,6.97
2023-04-14T16:52:53.765Z,6.50
2023-04-14T16:55:21.036Z,6.32
2023-04-14T16:57:48.099Z,7.03
2023-04-14T17:00:15.283Z,6.88
2023-04-14T17:02:42.743Z,7.22
2023-04-14T17:05:11.360Z,6.65
2023-04-14T17:07:38.057Z,6.90
2023-04-14T17:10:05.488Z,7.22
2023-04-14T17:12:35.397Z,6.93
2023-04-14T17:15:03.828Z,6.88
2023-04-14T17:17:31.084Z,6.78
2023-04-14T17:19:58.494Z,6.63
2023-04-14T17:22:25.135Z,7.13
2023-04-14T17:24:52.407Z,6.70
2023-04-14T17:27:19.959Z,6.90
2023-04-14T17:29:46.591Z,7.35
2023-04-14T17:32:13.578Z,6.13
2023-04-14T17:34:40.613Z,6.80
2023-04-14T17:37:07.151Z,6.97
2023-04-14T17:39:34.109Z,6.35
2023-04-14T17:42:01.640Z,6.47
2023-04-14T17:44:32.873Z,6.25
2023-04-14T17:47:03.558Z,6.65
2023-04-14T17:49:30.732Z,6.72
2023-04-14T17:51:57.569Z,6.85
2023-04-14T17:54:24.299Z,6.82
2023-04-14T17:56:51.061Z,6.15
2023-04-14T17:59:20.606Z,7.03
2023-04-14T18:01:47.481Z,6.50
2023-04-14T18:04:14.525Z,6.65
2023-04-14T18:06:44.752Z,6.82
2023-04-14T18:09:12.529Z,6.53
2023-04-14T18:11:39.304Z,6.82
2023-04-14T18:14:06.185Z,6.90
2023-04-14T18:16:33.014Z,6.85
2023-04-14T18:19:00.178Z,6.95
2023-04-14T18:21:27.738Z,7.15
2023-04-14T18:26:27.342Z,6.43
2023-04-14T18:28:54.472Z,7.10
2023-04-14T18:31:21.184Z,6.65
2023-04-14T18:33:48.102Z,6.53
2023-04-14T18:36:14.822Z,6.03
2023-04-14T18:38:41.569Z,6.70
2023-04-14T18:41:08.489Z,6.88
2023-04-14T18:43:38.298Z,6.55
2023-04-14T18:46:04.929Z,7.38
2023-04-14T18:48:32.465Z,7.63
2023-04-14T18:51:02.626Z,6.88
2023-04-14T18:53:29.735Z,7.10
2023-04-14T18:55:56.661Z,6.97
2023-04-14T18:58:23.940Z,7.03
2023-04-14T19:00:51.663Z,6.70
2023-04-14T19:03:18.734Z,6.90
2023-04-14T19:05:45.611Z,7.22
2023-04-14T19:08:12.248Z,6.85
2023-04-14T19:10:39.943Z,6.93
2023-04-14T19:13:06.782Z,7.40
2023-04-14T19:15:33.553Z,6.97
2023-04-14T19:18:01.376Z,7.20
2023-04-14T19:20:28.205Z,7.32
2023-04-14T19:22:54.940Z,6.80
2023-04-14T19:25:22.832Z,7.13
2023-04-14T19:27:49.849Z,6.75
2023-04-14T19:30:17.900Z,6.85
2023-04-14T19:32:45.023Z,6.50
2023-04-14T19:35:12.025Z,6.60
2023-04-14T19:37:39.327Z,6.55
2023-04-14T19:40:07.376Z,7.07
2023-04-14T19:42:34.322Z,6.90
2023-04-14T19:45:01.353Z,7.13
2023-04-14T19:47:28.175Z,6.80
2023-04-14T19:49:55.458Z,6.32
2023-04-14T19:52:22.560Z,7.78
2023-04-14T19:54:49.851Z,6.85
2023-04-14T19:57:17.104Z,6.50
2023-04-14T19:59:44.338Z,7.05
2023-04-14T20:02:13.353Z,6.72
2023-04-14T20:04:40.703Z,6.78
2023-04-14T20:07:07.583Z,6.65
2023-04-14T20:09:34.847Z,7.03
2023-04-14T20:12:02.673Z,6.88
2023-04-14T20:14:29.507Z,6.85
2023-04-14T20:16:56.750Z,6.95
2023-04-14T20:19:24.529Z,6.95
2023-04-14T20:21:51.512Z,6.85
2023-04-14T20:24:19.378Z,6.78
2023-04-14T20:26:46.781Z,6.82
2023-04-14T20:29:16.018Z,6.70
2023-04-14T20:31:42.912Z,6.70
2023-04-14T20:34:10.769Z,6.55
2023-04-14T20:36:37.986Z,6.55
2023-04-14T20:39:06.202Z,7.60
2023-04-14T20:41:36.773Z,7.40
2023-04-14T20:44:06.459Z,6.57
2023-04-14T20:46:33.640Z,6.70
2023-04-14T20:49:02.689Z,7.10
2023-04-14T20:51:30.132Z,6.75
2023-04-14T20:53:57.092Z,7.30
2023-04-14T20:56:27.312Z,7.10
2023-04-14T20:58:54.166Z,6.65
2023-04-14T21:01:21.301Z,6.53
2023-04-14T21:03:48.230Z,7.22
2023-04-14T21:06:14.919Z,6.82
2023-04-14T21:08:41.643Z,7.47
2023-04-14T21:11:17.152Z,7.22
2023-04-14T21:15:38.471Z,7.15
2023-04-14T21:16:32.592Z,7.50
2023-04-14T21:18:59.247Z,7.45
2023-04-14T21:21:26.282Z,7.30
2023-04-14T21:23:53.137Z,7.05
2023-04-14T21:26:19.989Z,7.40
2023-04-14T21:28:46.738Z,7.68
2023-04-14T21:31:13.558Z,7.43
2023-04-14T21:33:41.944Z,7.35
2023-04-14T21:36:09.872Z,7.90
2023-04-14T21:38:37.580Z,7.50
2023-04-14T21:41:04.217Z,7.30
2023-04-14T21:43:31.007Z,7.65
2023-04-14T21:45:58.032Z,7.60
2023-04-14T21:48:24.802Z,7.05
2023-04-14T21:50:51.402Z,7.28
2023-04-14T21:53:18.231Z,7.90
2023-04-14T21:55:44.899Z,7.78
2023-04-14T21:58:11.586Z,7.05
2023-04-14T22:00:38.447Z,7.68
2023-04-14T22:03:05.144Z,7.65
2023-04-14T22:05:32.055Z,7.90
2023-04-14T22:07:58.841Z,7.55
2023-04-14T22:10:31.924Z,7.47
2023-04-14T22:12:59.763Z,8.00
2023-04-14T22:15:27.650Z,7.60
2023-04-14T22:17:54.305Z,7.25
2023-04-14T22:20:23.411Z,7.85
2023-04-14T22:22:50.006Z,7.78
2023-04-14T22:25:16.921Z,7.80
2023-04-14T22:27:44.220Z,7.72
2023-04-14T22:30:12.120Z,7.97
2023-04-14T22:32:38.897Z,7.68
2023-04-14T22:35:05.622Z,7.72
2023-04-14T22:37:32.897Z,7.30
2023-04-14T22:40:02.508Z,7.38
2023-04-14T22:42:29.567Z,7.25
2023-04-14T22:44:56.521Z,7.80
2023-04-14T22:47:23.531Z,7.28
2023-04-14T22:49:51.026Z,7.93
2023-04-14T22:52:21.049Z,7.20
2023-04-14T22:54:49.054Z,7.80
2023-04-14T22:57:16.074Z,7.15
2023-04-14T22:59:43.031Z,7.72
2023-04-14T23:02:10.043Z,7.85
2023-04-14T23:04:36.997Z,7.97
2023-04-14T23:07:04.410Z,8.32
2023-04-14T23:09:33.373Z,8.10
2023-04-14T23:12:02.239Z,8.38
2023-04-14T23:14:29.267Z,8.88
2023-04-14T23:16:56.403Z,8.57
2023-04-14T23:19:23.454Z,8.77
2023-04-14T23:21:51.225Z,9.48
2023-04-14T23:24:18.376Z,9.45
2023-04-14T23:26:45.440Z,9.38
2023-04-14T23:29:12.280Z,9.60
2023-04-14T23:31:41.093Z,8.52
2023-04-14T23:34:09.678Z,8.48
2023-04-14T23:36:38.038Z,8.63
2023-04-14T23:39:04.953Z,7.45
2023-04-14T23:41:31.921Z,7.15
2023-04-14T23:43:58.765Z,6.90
2023-04-14T23:46:25.665Z,7.03
2023-04-14T23:48:55.369Z,6.70
2023-04-14T23:51:22.536Z,6.63
2023-04-14T23:53:49.877Z,6.10
2023-04-14T23:56:16.941Z,6.18
2023-04-14T23:58:44.036Z,5.30
